sensor_id;sensor_type;location;lat;lon;timestamp;temperature;humidity
13115;DHT22;6623;52.120;8.660;2022-12-13T00:01:51;-1.30;75.40
13115;DHT22;6623;52.120;8.660;2022-12-13T00:04:18;-1.40;74.70
13115;DHT22;6623;52.120;8.660;2022-12-13T00:06:45;-1.40;74.70
13115;DHT22;6623;52.120;8.660;2022-12-13T00:09:16;-1.40;74.90
13115;DHT22;6623;52.120;8.660;2022-12-13T00:11:42;-1.40;74.80
13115;DHT22;6623;52.120;8.660;2022-12-13T00:14:08;-1.40;74.80
13115;DHT22;6623;52.120;8.660;2022-12-13T00:16:34;-1.50;74.80
13115;DHT22;6623;52.120;8.660;2022-12-13T00:19:00;-1.50;74.80
13115;DHT22;6623;52.120;8.660;2022-12-13T00:21:28;-1.50;74.80
13115;DHT22;6623;52.120;8.660;2022-12-13T00:23:54;-1.50;74.90
13115;DHT22;6623;52.120;8.660;2022-12-13T00:26:23;-1.50;75.00
13115;DHT22;6623;52.120;8.660;2022-12-13T00:28:49;-1.60;75.00
13115;DHT22;6623;52.120;8.660;2022-12-13T00:31:16;-1.60;75.10
13115;DHT22;6623;52.120;8.660;2022-12-13T00:33:42;-1.60;75.10
13115;DHT22;6623;52.120;8.660;2022-12-13T00:36:09;-1.60;75.20
13115;DHT22;6623;52.120;8.660;2022-12-13T00:38:35;-1.60;75.20
13115;DHT22;6623;52.120;8.660;2022-12-13T00:41:18;-1.60;75.20
13115;DHT22;6623;52.120;8.660;2022-12-13T00:43:44;-1.60;75.20
13115;DHT22;6623;52.120;8.660;2022-12-13T00:46:15;-1.60;75.20
13115;DHT22;6623;52.120;8.660;2022-12-13T00:48:42;-1.60;75.20
13115;DHT22;6623;52.120;8.660;2022-12-13T00:51:09;-1.60;75.20
13115;DHT22;6623;52.120;8.660;2022-12-13T00:53:35;-1.60;75.20
13115;DHT22;6623;52.120;8.660;2022-12-13T00:56:01;-1.60;75.20
13115;DHT22;6623;52.120;8.660;2022-12-13T00:58:27;-1.70;75.20
13115;DHT22;6623;52.120;8.660;2022-12-13T01:00:52;-1.70;75.20
13115;DHT22;6623;52.120;8.660;2022-12-13T01:03:26;-1.70;75.20
13115;DHT22;6623;52.120;8.660;2022-12-13T01:05:51;-1.70;75.30
13115;DHT22;6623;52.120;8.660;2022-12-13T01:08:17;-1.70;75.30
13115;DHT22;6623;52.120;8.660;2022-12-13T01:10:46;-1.70;75.30
13115;DHT22;6623;52.120;8.660;2022-12-13T01:13:12;-1.70;75.30
13115;DHT22;6623;52.120;8.660;2022-12-13T01:15:42;-1.70;75.30
13115;DHT22;6623;52.120;8.660;2022-12-13T01:18:10;-1.80;75.30
13115;DHT22;6623;52.120;8.660;2022-12-13T01:20:36;-1.70;75.40
13115;DHT22;6623;52.120;8.660;2022-12-13T01:23:02;-1.80;75.40
13115;DHT22;6623;52.120;8.660;2022-12-13T01:25:27;-1.80;75.40
13115;DHT22;6623;52.120;8.660;2022-12-13T01:27:53;-1.80;75.60
13115;DHT22;6623;52.120;8.660;2022-12-13T01:30:19;-1.80;75.80
13115;DHT22;6623;52.120;8.660;2022-12-13T01:32:44;-1.80;76.00
13115;DHT22;6623;52.120;8.660;2022-12-13T01:35:10;-1.80;76.30
13115;DHT22;6623;52.120;8.660;2022-12-13T01:37:37;-1.80;76.50
13115;DHT22;6623;52.120;8.660;2022-12-13T01:40:03;-1.70;76.80
13115;DHT22;6623;52.120;8.660;2022-12-13T01:42:29;-1.70;77.00
13115;DHT22;6623;52.120;8.660;2022-12-13T01:47:56;-1.60;77.20
13115;DHT22;6623;52.120;8.660;2022-12-13T01:50:33;-1.60;77.40
13115;DHT22;6623;52.120;8.660;2022-12-13T01:53:04;-1.60;77.60
13115;DHT22;6623;52.120;8.660;2022-12-13T01:55:33;-1.50;77.70
13115;DHT22;6623;52.120;8.660;2022-12-13T01:58:01;-1.50;77.80
13115;DHT22;6623;52.120;8.660;2022-12-13T02:00:33;-1.60;77.70
13115;DHT22;6623;52.120;8.660;2022-12-13T02:03:00;-1.50;77.90
13115;DHT22;6623;52.120;8.660;2022-12-13T02:05:34;-1.50;78.00
13115;DHT22;6623;52.120;8.660;2022-12-13T02:08:02;-1.50;78.00
13115;DHT22;6623;52.120;8.660;2022-12-13T02:10:30;-1.50;78.10
13115;DHT22;6623;52.120;8.660;2022-12-13T02:12:56;-1.50;78.10
13115;DHT22;6623;52.120;8.660;2022-12-13T02:15:23;-1.50;78.10
13115;DHT22;6623;52.120;8.660;2022-12-13T02:20:50;-1.50;78.10
13115;DHT22;6623;52.120;8.660;2022-12-13T02:29:28;-1.50;77.90
13115;DHT22;6623;52.120;8.660;2022-12-13T02:32:07;-1.50;77.80
13115;DHT22;6623;52.120;8.660;2022-12-13T02:34:46;-1.50;77.70
13115;DHT22;6623;52.120;8.660;2022-12-13T02:37:22;-1.50;77.80
13115;DHT22;6623;52.120;8.660;2022-12-13T02:40:04;-1.50;78.00
13115;DHT22;6623;52.120;8.660;2022-12-13T02:42:39;-1.50;78.10
13115;DHT22;6623;52.120;8.660;2022-12-13T02:45:19;-1.50;78.10
13115;DHT22;6623;52.120;8.660;2022-12-13T02:47:48;-1.50;78.10
13115;DHT22;6623;52.120;8.660;2022-12-13T02:50:16;-1.40;78.10
13115;DHT22;6623;52.120;8.660;2022-12-13T02:52:42;-1.40;78.10
13115;DHT22;6623;52.120;8.660;2022-12-13T02:55:14;-1.50;78.10
13115;DHT22;6623;52.120;8.660;2022-12-13T02:57:43;-1.40;78.20
13115;DHT22;6623;52.120;8.660;2022-12-13T03:00:15;-1.40;78.20
13115;DHT22;6623;52.120;8.660;2022-12-13T03:02:58;-1.40;78.30
13115;DHT22;6623;52.120;8.660;2022-12-13T03:15:28;-1.40;78.10
13115;DHT22;6623;52.120;8.660;2022-12-13T03:17:58;-1.30;78.30
13115;DHT22;6623;52.120;8.660;2022-12-13T03:20:27;-1.40;78.10
13115;DHT22;6623;52.120;8.660;2022-12-13T03:22:55;-1.40;78.10
13115;DHT22;6623;52.120;8.660;2022-12-13T03:25:26;-1.40;78.00
13115;DHT22;6623;52.120;8.660;2022-12-13T03:27:54;-1.40;77.90
13115;DHT22;6623;52.120;8.660;2022-12-13T03:30:19;-1.40;78.00
13115;DHT22;6623;52.120;8.660;2022-12-13T03:32:45;-1.40;78.00
13115;DHT22;6623;52.120;8.660;2022-12-13T03:35:11;-1.40;78.10
13115;DHT22;6623;52.120;8.660;2022-12-13T03:37:36;-1.40;78.10
13115;DHT22;6623;52.120;8.660;2022-12-13T03:40:02;-1.40;78.00
13115;DHT22;6623;52.120;8.660;2022-12-13T03:42:28;-1.40;77.80
13115;DHT22;6623;52.120;8.660;2022-12-13T03:44:53;-1.40;77.80
13115;DHT22;6623;52.120;8.660;2022-12-13T03:47:19;-1.10;78.00
13115;DHT22;6623;52.120;8.660;2022-12-13T03:49:45;-1.40;77.80
13115;DHT22;6623;52.120;8.660;2022-12-13T03:52:10;-1.40;77.80
13115;DHT22;6623;52.120;8.660;2022-12-13T03:54:36;-1.50;78.30
13115;DHT22;6623;52.120;8.660;2022-12-13T03:57:01;-1.50;77.70
13115;DHT22;6623;52.120;8.660;2022-12-13T03:59:27;-1.50;77.70
13115;DHT22;6623;52.120;8.660;2022-12-13T04:01:53;-1.50;77.60
13115;DHT22;6623;52.120;8.660;2022-12-13T04:04:18;-1.50;77.60
13115;DHT22;6623;52.120;8.660;2022-12-13T04:06:44;-1.50;77.60
13115;DHT22;6623;52.120;8.660;2022-12-13T04:09:09;-1.50;77.80
13115;DHT22;6623;52.120;8.660;2022-12-13T04:11:35;-1.50;77.80
13115;DHT22;6623;52.120;8.660;2022-12-13T04:14:19;-1.50;77.60
13115;DHT22;6623;52.120;8.660;2022-12-13T04:16:45;-1.50;77.70
13115;DHT22;6623;52.120;8.660;2022-12-13T04:19:10;-1.50;77.70
13115;DHT22;6623;52.120;8.660;2022-12-13T04:21:36;-1.50;77.70
13115;DHT22;6623;52.120;8.660;2022-12-13T04:24:02;-1.50;77.70
13115;DHT22;6623;52.120;8.660;2022-12-13T04:26:28;-1.50;77.70
13115;DHT22;6623;52.120;8.660;2022-12-13T04:28:53;-1.50;77.80
13115;DHT22;6623;52.120;8.660;2022-12-13T04:31:19;-1.50;77.80
13115;DHT22;6623;52.120;8.660;2022-12-13T04:33:45;-1.50;77.80
13115;DHT22;6623;52.120;8.660;2022-12-13T04:36:10;-1.50;77.70
13115;DHT22;6623;52.120;8.660;2022-12-13T04:38:36;-1.50;77.70
13115;DHT22;6623;52.120;8.660;2022-12-13T04:41:13;-1.50;77.70
13115;DHT22;6623;52.120;8.660;2022-12-13T04:43:39;-1.50;77.60
13115;DHT22;6623;52.120;8.660;2022-12-13T04:46:05;-1.50;77.80
13115;DHT22;6623;52.120;8.660;2022-12-13T04:48:30;-1.50;77.80
13115;DHT22;6623;52.120;8.660;2022-12-13T04:50:57;-1.50;77.70
13115;DHT22;6623;52.120;8.660;2022-12-13T04:53:23;-1.50;77.80
13115;DHT22;6623;52.120;8.660;2022-12-13T04:55:52;-1.50;77.80
13115;DHT22;6623;52.120;8.660;2022-12-13T04:58:18;-1.50;77.80
13115;DHT22;6623;52.120;8.660;2022-12-13T05:00:44;-1.50;77.80
13115;DHT22;6623;52.120;8.660;2022-12-13T05:03:10;-1.50;77.80
13115;DHT22;6623;52.120;8.660;2022-12-13T05:05:39;-1.40;77.80
13115;DHT22;6623;52.120;8.660;2022-12-13T05:08:06;-1.50;77.70
13115;DHT22;6623;52.120;8.660;2022-12-13T05:10:32;-1.40;77.70
13115;DHT22;6623;52.120;8.660;2022-12-13T05:12:58;-1.40;77.70
13115;DHT22;6623;52.120;8.660;2022-12-13T05:15:24;-1.40;77.70
13115;DHT22;6623;52.120;8.660;2022-12-13T05:17:49;-1.40;77.70
13115;DHT22;6623;52.120;8.660;2022-12-13T05:20:15;-1.40;77.50
13115;DHT22;6623;52.120;8.660;2022-12-13T05:22:41;-1.50;77.40
13115;DHT22;6623;52.120;8.660;2022-12-13T05:25:06;-1.50;77.50
13115;DHT22;6623;52.120;8.660;2022-12-13T05:27:32;-1.50;77.50
13115;DHT22;6623;52.120;8.660;2022-12-13T05:29:58;-1.50;77.60
13115;DHT22;6623;52.120;8.660;2022-12-13T05:32:24;-1.50;77.60
13115;DHT22;6623;52.120;8.660;2022-12-13T05:34:49;-1.50;77.50
13115;DHT22;6623;52.120;8.660;2022-12-13T05:37:15;-1.50;77.40
13115;DHT22;6623;52.120;8.660;2022-12-13T05:39:40;-1.50;77.40
13115;DHT22;6623;52.120;8.660;2022-12-13T05:42:06;-1.60;77.40
13115;DHT22;6623;52.120;8.660;2022-12-13T05:44:32;-1.60;77.50
13115;DHT22;6623;52.120;8.660;2022-12-13T05:46:58;-1.60;77.50
13115;DHT22;6623;52.120;8.660;2022-12-13T05:49:24;-1.60;77.60
13115;DHT22;6623;52.120;8.660;2022-12-13T05:51:49;-1.60;78.10
13115;DHT22;6623;52.120;8.660;2022-12-13T05:54:15;-1.60;77.40
13115;DHT22;6623;52.120;8.660;2022-12-13T05:56:40;-1.60;77.50
13115;DHT22;6623;52.120;8.660;2022-12-13T05:59:06;-1.60;77.50
13115;DHT22;6623;52.120;8.660;2022-12-13T06:01:32;-1.60;77.50
13115;DHT22;6623;52.120;8.660;2022-12-13T06:03:57;-1.60;77.30
13115;DHT22;6623;52.120;8.660;2022-12-13T06:06:23;-1.70;77.30
13115;DHT22;6623;52.120;8.660;2022-12-13T06:08:48;-1.60;77.30
13115;DHT22;6623;52.120;8.660;2022-12-13T06:11:14;-1.70;77.30
13115;DHT22;6623;52.120;8.660;2022-12-13T06:13:43;-1.70;77.30
13115;DHT22;6623;52.120;8.660;2022-12-13T06:16:10;-1.70;77.30
13115;DHT22;6623;52.120;8.660;2022-12-13T06:18:36;-1.70;77.30
13115;DHT22;6623;52.120;8.660;2022-12-13T06:21:04;-1.70;77.40
13115;DHT22;6623;52.120;8.660;2022-12-13T06:23:31;-1.70;77.40
13115;DHT22;6623;52.120;8.660;2022-12-13T06:25:57;-1.70;77.40
13115;DHT22;6623;52.120;8.660;2022-12-13T06:28:23;-1.70;77.40
13115;DHT22;6623;52.120;8.660;2022-12-13T06:30:49;-1.80;77.50
13115;DHT22;6623;52.120;8.660;2022-12-13T06:33:18;-1.80;77.60
13115;DHT22;6623;52.120;8.660;2022-12-13T06:35:44;-1.70;77.80
13115;DHT22;6623;52.120;8.660;2022-12-13T06:38:10;-1.70;78.00
13115;DHT22;6623;52.120;8.660;2022-12-13T06:40:36;-1.70;77.90
13115;DHT22;6623;52.120;8.660;2022-12-13T06:43:03;-1.70;77.70
13115;DHT22;6623;52.120;8.660;2022-12-13T06:45:29;-1.70;77.60
13115;DHT22;6623;52.120;8.660;2022-12-13T06:47:55;-1.70;77.60
13115;DHT22;6623;52.120;8.660;2022-12-13T06:50:21;-1.70;77.60
13115;DHT22;6623;52.120;8.660;2022-12-13T06:52:47;-1.70;77.60
13115;DHT22;6623;52.120;8.660;2022-12-13T06:55:13;-1.30;77.90
13115;DHT22;6623;52.120;8.660;2022-12-13T06:57:39;-1.70;77.60
13115;DHT22;6623;52.120;8.660;2022-12-13T07:00:05;-1.70;77.60
13115;DHT22;6623;52.120;8.660;2022-12-13T07:02:30;-1.70;77.50
13115;DHT22;6623;52.120;8.660;2022-12-13T07:04:57;-1.70;77.40
13115;DHT22;6623;52.120;8.660;2022-12-13T07:07:23;-1.70;77.40
13115;DHT22;6623;52.120;8.660;2022-12-13T07:09:50;-1.70;77.20
13115;DHT22;6623;52.120;8.660;2022-12-13T07:12:16;-1.70;77.30
13115;DHT22;6623;52.120;8.660;2022-12-13T07:14:42;-1.80;77.30
13115;DHT22;6623;52.120;8.660;2022-12-13T07:17:08;-1.70;77.40
13115;DHT22;6623;52.120;8.660;2022-12-13T07:19:35;-1.70;77.50
13115;DHT22;6623;52.120;8.660;2022-12-13T07:22:00;-1.70;77.40
13115;DHT22;6623;52.120;8.660;2022-12-13T07:24:26;-1.70;77.40
13115;DHT22;6623;52.120;8.660;2022-12-13T07:26:51;-1.60;77.40
13115;DHT22;6623;52.120;8.660;2022-12-13T07:29:17;-1.70;77.40
13115;DHT22;6623;52.120;8.660;2022-12-13T07:31:43;-1.70;77.50
13115;DHT22;6623;52.120;8.660;2022-12-13T07:34:08;-1.70;77.50
13115;DHT22;6623;52.120;8.660;2022-12-13T07:36:34;-1.70;77.30
13115;DHT22;6623;52.120;8.660;2022-12-13T07:38:59;-1.70;77.20
13115;DHT22;6623;52.120;8.660;2022-12-13T07:41:25;-1.70;77.10
13115;DHT22;6623;52.120;8.660;2022-12-13T07:43:51;-1.70;77.10
13115;DHT22;6623;52.120;8.660;2022-12-13T07:46:17;-1.80;77.00
13115;DHT22;6623;52.120;8.660;2022-12-13T07:48:43;-1.80;77.00
13115;DHT22;6623;52.120;8.660;2022-12-13T07:51:10;-1.80;77.10
13115;DHT22;6623;52.120;8.660;2022-12-13T07:53:39;-1.80;77.30
13115;DHT22;6623;52.120;8.660;2022-12-13T07:56:07;-1.80;77.40
13115;DHT22;6623;52.120;8.660;2022-12-13T07:58:34;-1.80;77.20
13115;DHT22;6623;52.120;8.660;2022-12-13T08:01:02;-1.80;77.40
13115;DHT22;6623;52.120;8.660;2022-12-13T08:03:28;-1.80;77.60
13115;DHT22;6623;52.120;8.660;2022-12-13T08:06:12;-1.80;77.60
13115;DHT22;6623;52.120;8.660;2022-12-13T08:08:38;-1.80;77.50
13115;DHT22;6623;52.120;8.660;2022-12-13T08:13:31;-1.70;77.60
13115;DHT22;6623;52.120;8.660;2022-12-13T08:16:02;-1.70;77.60
13115;DHT22;6623;52.120;8.660;2022-12-13T08:18:28;-1.70;77.80
13115;DHT22;6623;52.120;8.660;2022-12-13T08:21:02;-1.70;77.90
13115;DHT22;6623;52.120;8.660;2022-12-13T08:23:29;-1.60;78.00
13115;DHT22;6623;52.120;8.660;2022-12-13T08:25:56;-1.60;77.90
13115;DHT22;6623;52.120;8.660;2022-12-13T08:28:23;-1.60;77.80
13115;DHT22;6623;52.120;8.660;2022-12-13T08:30:49;-1.60;77.80
13115;DHT22;6623;52.120;8.660;2022-12-13T08:33:17;-1.60;77.70
13115;DHT22;6623;52.120;8.660;2022-12-13T08:35:43;-1.60;77.80
13115;DHT22;6623;52.120;8.660;2022-12-13T08:38:09;-1.60;77.80
13115;DHT22;6623;52.120;8.660;2022-12-13T08:40:35;-1.50;77.80
13115;DHT22;6623;52.120;8.660;2022-12-13T08:43:01;-1.60;77.70
13115;DHT22;6623;52.120;8.660;2022-12-13T08:45:27;-1.60;77.70
13115;DHT22;6623;52.120;8.660;2022-12-13T08:47:54;-1.50;77.70
13115;DHT22;6623;52.120;8.660;2022-12-13T08:50:21;-1.60;77.50
13115;DHT22;6623;52.120;8.660;2022-12-13T08:52:46;-1.60;77.60
13115;DHT22;6623;52.120;8.660;2022-12-13T08:55:13;-1.60;77.70
13115;DHT22;6623;52.120;8.660;2022-12-13T08:57:40;-1.60;77.50
13115;DHT22;6623;52.120;8.660;2022-12-13T09:00:10;-1.60;77.30
13115;DHT22;6623;52.120;8.660;2022-12-13T09:02:36;-1.60;77.00
13115;DHT22;6623;52.120;8.660;2022-12-13T09:05:02;-1.70;76.90
13115;DHT22;6623;52.120;8.660;2022-12-13T09:07:28;-1.70;76.80
13115;DHT22;6623;52.120;8.660;2022-12-13T09:09:53;-1.70;76.70
13115;DHT22;6623;52.120;8.660;2022-12-13T09:12:19;-1.70;76.90
13115;DHT22;6623;52.120;8.660;2022-12-13T09:14:45;-1.70;77.10
13115;DHT22;6623;52.120;8.660;2022-12-13T09:17:14;-1.60;77.20
13115;DHT22;6623;52.120;8.660;2022-12-13T09:19:40;-1.60;77.10
13115;DHT22;6623;52.120;8.660;2022-12-13T09:22:06;-1.60;76.90
13115;DHT22;6623;52.120;8.660;2022-12-13T09:24:31;-1.60;76.50
13115;DHT22;6623;52.120;8.660;2022-12-13T09:26:57;-1.60;76.50
13115;DHT22;6623;52.120;8.660;2022-12-13T09:29:23;-1.70;76.40
13115;DHT22;6623;52.120;8.660;2022-12-13T09:31:48;-1.70;76.40
13115;DHT22;6623;52.120;8.660;2022-12-13T09:34:14;-1.70;76.40
13115;DHT22;6623;52.120;8.660;2022-12-13T09:36:39;-1.70;76.40
13115;DHT22;6623;52.120;8.660;2022-12-13T09:39:06;-1.70;76.40
13115;DHT22;6623;52.120;8.660;2022-12-13T09:41:41;-1.70;76.40
13115;DHT22;6623;52.120;8.660;2022-12-13T09:44:21;-1.70;76.60
13115;DHT22;6623;52.120;8.660;2022-12-13T09:46:48;-1.70;76.60
13115;DHT22;6623;52.120;8.660;2022-12-13T09:49:33;-1.60;76.70
13115;DHT22;6623;52.120;8.660;2022-12-13T09:52:02;-1.70;76.60
13115;DHT22;6623;52.120;8.660;2022-12-13T09:54:28;-1.60;76.70
13115;DHT22;6623;52.120;8.660;2022-12-13T09:56:55;-1.60;76.70
13115;DHT22;6623;52.120;8.660;2022-12-13T09:59:30;-1.60;76.70
13115;DHT22;6623;52.120;8.660;2022-12-13T10:02:02;-1.60;76.80
13115;DHT22;6623;52.120;8.660;2022-12-13T10:04:28;-1.60;76.90
13115;DHT22;6623;52.120;8.660;2022-12-13T10:06:53;-1.60;76.90
13115;DHT22;6623;52.120;8.660;2022-12-13T10:09:20;-1.60;77.00
13115;DHT22;6623;52.120;8.660;2022-12-13T10:11:50;-1.60;77.10
13115;DHT22;6623;52.120;8.660;2022-12-13T10:14:39;-1.60;77.20
13115;DHT22;6623;52.120;8.660;2022-12-13T10:17:08;-1.60;77.20
13115;DHT22;6623;52.120;8.660;2022-12-13T10:19:40;-1.50;77.50
13115;DHT22;6623;52.120;8.660;2022-12-13T10:22:12;-1.50;77.60
13115;DHT22;6623;52.120;8.660;2022-12-13T10:24:59;-1.50;77.70
13115;DHT22;6623;52.120;8.660;2022-12-13T10:27:34;-1.40;77.60
13115;DHT22;6623;52.120;8.660;2022-12-13T10:30:13;-1.40;77.40
13115;DHT22;6623;52.120;8.660;2022-12-13T10:32:56;-1.50;77.30
13115;DHT22;6623;52.120;8.660;2022-12-13T10:35:33;-1.50;77.50
13115;DHT22;6623;52.120;8.660;2022-12-13T10:38:25;-1.50;77.70
13115;DHT22;6623;52.120;8.660;2022-12-13T10:40:51;-1.50;77.80
13115;DHT22;6623;52.120;8.660;2022-12-13T10:43:22;-1.50;77.90
13115;DHT22;6623;52.120;8.660;2022-12-13T10:46:00;-1.60;77.80
13115;DHT22;6623;52.120;8.660;2022-12-13T10:51:12;-1.40;78.00
13115;DHT22;6623;52.120;8.660;2022-12-13T10:56:11;-1.40;77.90
13115;DHT22;6623;52.120;8.660;2022-12-13T10:58:40;-1.40;77.90
13115;DHT22;6623;52.120;8.660;2022-12-13T11:01:20;-1.40;77.90
13115;DHT22;6623;52.120;8.660;2022-12-13T11:04:00;-1.40;78.00
13115;DHT22;6623;52.120;8.660;2022-12-13T11:06:28;-1.40;78.00
13115;DHT22;6623;52.120;8.660;2022-12-13T11:09:34;-1.50;78.10
13115;DHT22;6623;52.120;8.660;2022-12-13T11:12:10;-1.50;78.30
13115;DHT22;6623;52.120;8.660;2022-12-13T11:14:45;-1.20;78.50
13115;DHT22;6623;52.120;8.660;2022-12-13T11:17:16;-1.40;78.50
13115;DHT22;6623;52.120;8.660;2022-12-13T11:19:50;-1.40;78.50
13115;DHT22;6623;52.120;8.660;2022-12-13T11:22:29;-1.80;78.20
13115;DHT22;6623;52.120;8.660;2022-12-13T11:25:20;-1.40;78.40
13115;DHT22;6623;52.120;8.660;2022-12-13T11:36:16;-1.30;78.30
13115;DHT22;6623;52.120;8.660;2022-12-13T11:41:22;-1.20;78.30
13115;DHT22;6623;52.120;8.660;2022-12-13T11:43:54;-1.20;78.30
13115;DHT22;6623;52.120;8.660;2022-12-13T11:46:37;-1.20;78.30
13115;DHT22;6623;52.120;8.660;2022-12-13T11:49:38;-1.20;78.30
13115;DHT22;6623;52.120;8.660;2022-12-13T11:52:14;-1.20;78.40
13115;DHT22;6623;52.120;8.660;2022-12-13T11:55:27;-1.10;78.40
13115;DHT22;6623;52.120;8.660;2022-12-13T11:57:56;-1.10;78.40
13115;DHT22;6623;52.120;8.660;2022-12-13T12:00:44;-1.10;78.30
13115;DHT22;6623;52.120;8.660;2022-12-13T12:03:19;-1.10;78.30
13115;DHT22;6623;52.120;8.660;2022-12-13T12:05:54;-1.10;78.30
13115;DHT22;6623;52.120;8.660;2022-12-13T12:08:45;-1.10;78.30
13115;DHT22;6623;52.120;8.660;2022-12-13T12:14:08;-1.00;78.30
13115;DHT22;6623;52.120;8.660;2022-12-13T12:19:12;-1.00;78.20
13115;DHT22;6623;52.120;8.660;2022-12-13T12:24:19;-1.00;78.30
13115;DHT22;6623;52.120;8.660;2022-12-13T12:27:16;-1.00;78.30
13115;DHT22;6623;52.120;8.660;2022-12-13T12:32:41;-0.90;78.30
13115;DHT22;6623;52.120;8.660;2022-12-13T12:35:17;-0.90;78.30
13115;DHT22;6623;52.120;8.660;2022-12-13T12:40:42;-0.90;78.20
13115;DHT22;6623;52.120;8.660;2022-12-13T12:43:29;-0.90;78.20
13115;DHT22;6623;52.120;8.660;2022-12-13T12:46:05;-0.80;78.30
13115;DHT22;6623;52.120;8.660;2022-12-13T12:49:02;-0.90;78.10
13115;DHT22;6623;52.120;8.660;2022-12-13T12:52:02;-0.80;78.10
13115;DHT22;6623;52.120;8.660;2022-12-13T13:05:22;-0.80;78.10
13115;DHT22;6623;52.120;8.660;2022-12-13T13:07:55;-0.80;78.10
13115;DHT22;6623;52.120;8.660;2022-12-13T13:10:22;-0.80;78.00
13115;DHT22;6623;52.120;8.660;2022-12-13T13:12:48;-0.80;78.00
13115;DHT22;6623;52.120;8.660;2022-12-13T13:18:02;-0.80;77.90
13115;DHT22;6623;52.120;8.660;2022-12-13T13:20:28;-0.80;77.90
13115;DHT22;6623;52.120;8.660;2022-12-13T13:22:55;-0.80;77.90
13115;DHT22;6623;52.120;8.660;2022-12-13T13:25:28;-0.70;77.90
13115;DHT22;6623;52.120;8.660;2022-12-13T13:30:30;-0.80;77.80
13115;DHT22;6623;52.120;8.660;2022-12-13T13:32:57;-0.70;77.80
13115;DHT22;6623;52.120;8.660;2022-12-13T13:40:46;-0.70;77.50
13115;DHT22;6623;52.120;8.660;2022-12-13T13:43:12;-0.70;77.50
13115;DHT22;6623;52.120;8.660;2022-12-13T13:55:13;-0.70;77.10
13115;DHT22;6623;52.120;8.660;2022-12-13T14:07:00;-0.90;76.90
13115;DHT22;6623;52.120;8.660;2022-12-13T14:15:35;-0.80;76.80
13115;DHT22;6623;52.120;8.660;2022-12-13T14:21:20;-0.90;76.70
13115;DHT22;6623;52.120;8.660;2022-12-13T14:29:33;-0.90;76.60
13115;DHT22;6623;52.120;8.660;2022-12-13T14:32:26;-0.90;76.60
13115;DHT22;6623;52.120;8.660;2022-12-13T14:34:53;-0.90;76.50
13115;DHT22;6623;52.120;8.660;2022-12-13T14:37:39;-1.00;76.40
13115;DHT22;6623;52.120;8.660;2022-12-13T14:40:30;-1.00;76.30
13115;DHT22;6623;52.120;8.660;2022-12-13T14:42:56;-1.00;76.30
13115;DHT22;6623;52.120;8.660;2022-12-13T14:45:26;-1.00;76.30
13115;DHT22;6623;52.120;8.660;2022-12-13T14:47:55;-1.00;76.20
13115;DHT22;6623;52.120;8.660;2022-12-13T14:50:24;-1.10;76.20
13115;DHT22;6623;52.120;8.660;2022-12-13T14:52:51;-1.10;76.20
13115;DHT22;6623;52.120;8.660;2022-12-13T14:55:36;-1.10;76.20
13115;DHT22;6623;52.120;8.660;2022-12-13T14:58:12;-1.10;76.10
13115;DHT22;6623;52.120;8.660;2022-12-13T15:00:39;-1.10;76.10
13115;DHT22;6623;52.120;8.660;2022-12-13T15:03:05;-1.20;76.00
13115;DHT22;6623;52.120;8.660;2022-12-13T15:08:07;-1.20;75.90
13115;DHT22;6623;52.120;8.660;2022-12-13T15:10:37;-1.20;75.80
13115;DHT22;6623;52.120;8.660;2022-12-13T15:13:04;-1.20;75.80
13115;DHT22;6623;52.120;8.660;2022-12-13T15:15:32;-1.30;75.80
13115;DHT22;6623;52.120;8.660;2022-12-13T15:18:19;-0.70;76.10
13115;DHT22;6623;52.120;8.660;2022-12-13T15:20:47;-1.30;75.70
13115;DHT22;6623;52.120;8.660;2022-12-13T15:23:31;-1.30;75.70
13115;DHT22;6623;52.120;8.660;2022-12-13T15:26:17;-1.30;75.70
13115;DHT22;6623;52.120;8.660;2022-12-13T15:28:44;-1.30;75.70
13115;DHT22;6623;52.120;8.660;2022-12-13T15:31:11;-1.40;75.60
13115;DHT22;6623;52.120;8.660;2022-12-13T15:33:37;-1.40;75.60
13115;DHT22;6623;52.120;8.660;2022-12-13T15:36:07;-1.40;75.60
13115;DHT22;6623;52.120;8.660;2022-12-13T15:38:36;-1.50;75.50
13115;DHT22;6623;52.120;8.660;2022-12-13T15:41:04;-1.50;75.60
13115;DHT22;6623;52.120;8.660;2022-12-13T15:43:40;-1.50;75.50
13115;DHT22;6623;52.120;8.660;2022-12-13T15:46:07;-1.50;75.50
13115;DHT22;6623;52.120;8.660;2022-12-13T15:48:42;-1.50;75.50
13115;DHT22;6623;52.120;8.660;2022-12-13T15:51:16;-1.60;75.40
13115;DHT22;6623;52.120;8.660;2022-12-13T15:54:04;-1.60;75.50
13115;DHT22;6623;52.120;8.660;2022-12-13T15:56:33;-1.60;75.50
13115;DHT22;6623;52.120;8.660;2022-12-13T15:59:00;-1.60;75.50
13115;DHT22;6623;52.120;8.660;2022-12-13T16:01:33;-1.50;75.60
13115;DHT22;6623;52.120;8.660;2022-12-13T16:04:03;-1.70;75.40
13115;DHT22;6623;52.120;8.660;2022-12-13T16:06:31;-1.70;75.30
13115;DHT22;6623;52.120;8.660;2022-12-13T16:09:00;-1.70;76.00
13115;DHT22;6623;52.120;8.660;2022-12-13T16:11:33;-1.70;75.30
13115;DHT22;6623;52.120;8.660;2022-12-13T16:14:25;-1.70;75.40
13115;DHT22;6623;52.120;8.660;2022-12-13T16:16:53;-1.70;75.40
13115;DHT22;6623;52.120;8.660;2022-12-13T16:19:19;-1.80;75.40
13115;DHT22;6623;52.120;8.660;2022-12-13T16:21:45;-1.80;75.40
13115;DHT22;6623;52.120;8.660;2022-12-13T16:24:10;-1.80;75.40
13115;DHT22;6623;52.120;8.660;2022-12-13T16:26:36;-1.80;75.40
13115;DHT22;6623;52.120;8.660;2022-12-13T16:29:11;-1.80;75.40
13115;DHT22;6623;52.120;8.660;2022-12-13T16:31:37;-1.80;75.40
13115;DHT22;6623;52.120;8.660;2022-12-13T16:34:03;-1.90;75.40
13115;DHT22;6623;52.120;8.660;2022-12-13T16:36:29;-1.90;75.40
13115;DHT22;6623;52.120;8.660;2022-12-13T16:38:55;-1.90;75.40
13115;DHT22;6623;52.120;8.660;2022-12-13T16:41:21;-1.90;75.40
13115;DHT22;6623;52.120;8.660;2022-12-13T16:43:57;-1.90;75.50
13115;DHT22;6623;52.120;8.660;2022-12-13T16:46:23;-1.90;75.50
13115;DHT22;6623;52.120;8.660;2022-12-13T16:48:49;-2.00;75.40
13115;DHT22;6623;52.120;8.660;2022-12-13T16:51:15;-2.00;75.40
13115;DHT22;6623;52.120;8.660;2022-12-13T16:53:41;-2.00;75.30
13115;DHT22;6623;52.120;8.660;2022-12-13T16:56:06;-2.00;75.30
13115;DHT22;6623;52.120;8.660;2022-12-13T16:58:36;-2.00;75.30
13115;DHT22;6623;52.120;8.660;2022-12-13T17:01:13;-2.00;75.30
13115;DHT22;6623;52.120;8.660;2022-12-13T17:03:39;-2.10;75.20
13115;DHT22;6623;52.120;8.660;2022-12-13T17:06:07;-2.10;75.20
13115;DHT22;6623;52.120;8.660;2022-12-13T17:08:33;-2.10;75.20
13115;DHT22;6623;52.120;8.660;2022-12-13T17:10:59;-2.10;75.20
13115;DHT22;6623;52.120;8.660;2022-12-13T17:13:25;-2.10;75.20
13115;DHT22;6623;52.120;8.660;2022-12-13T17:15:51;-2.10;75.20
13115;DHT22;6623;52.120;8.660;2022-12-13T17:18:16;-2.10;75.20
13115;DHT22;6623;52.120;8.660;2022-12-13T17:20:43;-2.20;75.20
13115;DHT22;6623;52.120;8.660;2022-12-13T17:23:09;-1.00;75.80
13115;DHT22;6623;52.120;8.660;2022-12-13T17:25:39;-2.20;75.20
13115;DHT22;6623;52.120;8.660;2022-12-13T17:28:05;-1.60;75.50
13115;DHT22;6623;52.120;8.660;2022-12-13T17:30:31;-2.30;75.00
13115;DHT22;6623;52.120;8.660;2022-12-13T17:33:02;-1.10;75.80
13115;DHT22;6623;52.120;8.660;2022-12-13T17:35:29;-2.30;75.10
13115;DHT22;6623;52.120;8.660;2022-12-13T17:37:55;-0.10;76.40
13115;DHT22;6623;52.120;8.660;2022-12-13T17:40:20;-2.30;75.30
13115;DHT22;6623;52.120;8.660;2022-12-13T17:42:49;-2.10;75.50
13115;DHT22;6623;52.120;8.660;2022-12-13T17:45:15;-2.00;75.50
13115;DHT22;6623;52.120;8.660;2022-12-13T17:47:44;-3.10;74.90
13115;DHT22;6623;52.120;8.660;2022-12-13T17:50:10;-2.40;75.30
13115;DHT22;6623;52.120;8.660;2022-12-13T17:52:37;-2.40;75.40